createdAt,value
2022-09-26T00:00:08.045Z,10.8
2022-09-26T00:05:08.583Z,10.8
2022-09-26T00:10:08.289Z,10.8
2022-09-26T00:15:07.969Z,10.8
2022-09-26T00:20:07.698Z,10.8
2022-09-26T00:25:08.396Z,10.8
2022-09-26T00:30:08.064Z,10.6
2022-09-26T00:35:07.782Z,10.6
2022-09-26T00:40:08.498Z,10.5
2022-09-26T00:45:08.241Z,10.5
2022-09-26T00:50:07.899Z,10.6
2022-09-26T00:55:08.582Z,10.6
2022-09-26T01:00:08.292Z,10.6
2022-09-26T01:05:08.005Z,10.6
2022-09-26T01:10:07.711Z,10.6
2022-09-26T01:15:08.422Z,10.6
2022-09-26T01:20:08.087Z,10.6
2022-09-26T01:25:07.816Z,10.6
2022-09-26T01:30:08.771Z,10.8
2022-09-26T01:35:17.197Z,10.8
2022-09-26T01:40:07.939Z,10.8
2022-09-26T01:45:08.630Z,10.8
2022-09-26T01:50:08.287Z,10.8
2022-09-26T01:55:08.004Z,10.8
2022-09-26T02:00:07.708Z,10.8
2022-09-26T02:05:08.474Z,10.8
2022-09-26T02:10:08.185Z,10.8
2022-09-26T02:15:07.840Z,10.8
2022-09-26T02:20:08.536Z,10.8
2022-09-26T02:25:08.223Z,10.8
2022-09-26T02:30:07.878Z,10.8
2022-09-26T02:35:08.557Z,10.8
2022-09-26T02:40:08.585Z,10.6
2022-09-26T02:45:08.313Z,10.6
2022-09-26T02:50:08.021Z,10.6
2022-09-26T02:55:07.740Z,10.6
2022-09-26T03:00:08.399Z,10.6
2022-09-26T03:05:08.155Z,10.6
2022-09-26T03:10:07.929Z,10.6
2022-09-26T03:15:08.618Z,10.6
2022-09-26T03:20:08.310Z,10.8
2022-09-26T03:25:07.982Z,10.8
2022-09-26T03:30:07.677Z,10.8
2022-09-26T03:35:08.345Z,10.8
2022-09-26T03:40:08.394Z,10.8
2022-09-26T03:45:08.090Z,10.8
2022-09-26T03:50:07.792Z,10.8
2022-09-26T03:55:08.534Z,10.8
2022-09-26T04:00:08.244Z,10.8
2022-09-26T04:05:02.196Z,10.8
2022-09-26T04:10:02.041Z,10.8
2022-09-26T04:15:02.039Z,10.8
2022-09-26T04:20:02.033Z,10.8
2022-09-26T04:25:01.808Z,10.8
2022-09-26T04:30:02.733Z,10.8
2022-09-26T04:35:02.731Z,11.0
2022-09-26T04:40:02.631Z,10.8
2022-09-26T04:45:02.479Z,10.8
2022-09-26T04:50:02.349Z,10.8
2022-09-26T04:55:02.163Z,10.8
2022-09-26T05:00:02.060Z,10.8
2022-09-26T05:05:02.036Z,10.8
2022-09-26T05:10:01.838Z,10.8
2022-09-26T05:15:02.769Z,10.8
2022-09-26T05:20:02.574Z,10.8
2022-09-26T05:25:02.339Z,10.8
2022-09-26T05:30:02.289Z,10.8
2022-09-26T05:35:02.089Z,10.8
2022-09-26T05:40:01.923Z,10.8
2022-09-26T05:45:02.816Z,10.8
2022-09-26T05:50:02.659Z,10.8
2022-09-26T05:55:02.484Z,10.8
2022-09-26T06:00:02.295Z,10.8
2022-09-26T06:05:02.241Z,10.8
2022-09-26T06:10:02.014Z,10.8
2022-09-26T06:15:01.949Z,10.8
2022-09-26T06:20:01.858Z,10.8
2022-09-26T06:25:03.256Z,10.8
2022-09-26T06:30:02.115Z,10.8
2022-09-26T06:35:02.131Z,10.8
2022-09-26T06:40:02.007Z,10.6
2022-09-26T06:45:01.989Z,10.6
2022-09-26T06:50:01.848Z,9.6
2022-09-26T06:55:02.594Z,9.5
2022-09-26T07:00:02.529Z,9.5
2022-09-26T07:05:02.380Z,9.8
2022-09-26T07:10:02.211Z,10.3
2022-09-26T07:15:02.120Z,10.6
2022-09-26T07:20:01.948Z,10.8
2022-09-26T07:25:01.824Z,11.0
2022-09-26T07:30:02.817Z,11.1
2022-09-26T07:35:02.689Z,11.1
2022-09-26T07:40:02.560Z,11.3
2022-09-26T07:45:22.229Z,11.3
2022-09-26T07:50:02.540Z,11.3
2022-09-26T07:55:02.461Z,11.3
2022-09-26T08:00:02.305Z,11.3
2022-09-26T08:05:02.259Z,11.3
2022-09-26T08:10:02.109Z,11.3
2022-09-26T08:15:01.951Z,11.3
2022-09-26T08:20:01.906Z,11.3
2022-09-26T08:25:02.776Z,11.1
2022-09-26T08:30:03.339Z,11.1
2022-09-26T08:35:02.139Z,11.3
2022-09-26T08:40:01.979Z,11.3
2022-09-26T08:45:01.840Z,10.8
2022-09-26T08:50:02.643Z,10.1
2022-09-26T08:55:02.611Z,10.1
2022-09-26T09:00:02.595Z,11.0
2022-09-26T09:05:02.609Z,11.1
2022-09-26T09:10:02.577Z,11.3
2022-09-26T09:15:25.088Z,11.3
2022-09-26T09:20:02.031Z,11.6
2022-09-26T09:25:02.014Z,11.6
2022-09-26T09:30:03.209Z,11.6
2022-09-26T09:35:02.181Z,11.6
2022-09-26T09:40:01.978Z,11.6
2022-09-26T09:45:01.838Z,11.6
2022-09-26T09:50:02.658Z,11.6
2022-09-26T09:55:02.486Z,11.6
2022-09-26T10:00:02.499Z,11.3
2022-09-26T10:05:02.395Z,11.6
2022-09-26T10:10:02.148Z,11.6
2022-09-26T10:15:01.982Z,11.8
2022-09-26T10:20:01.822Z,11.8
2022-09-26T10:25:02.748Z,12.0
2022-09-26T10:30:02.524Z,12.1
2022-09-26T10:35:02.380Z,12.1
2022-09-26T10:40:02.302Z,12.3
2022-09-26T10:45:02.091Z,12.1
2022-09-26T10:50:01.979Z,12.1
2022-09-26T10:55:01.726Z,12.3
2022-09-26T11:00:02.510Z,12.3
2022-09-26T11:05:02.362Z,12.5
2022-09-26T11:10:02.149Z,12.1
2022-09-26T11:15:03.936Z,12.1
2022-09-26T11:20:01.872Z,12.1
2022-09-26T11:25:02.703Z,12.0
2022-09-26T11:30:02.598Z,11.8
2022-09-26T11:35:02.667Z,11.6
2022-09-26T11:40:07.186Z,11.6
2022-09-26T11:45:02.310Z,11.3
2022-09-26T11:50:02.259Z,11.1
2022-09-26T11:55:02.174Z,11.0
2022-09-26T12:00:02.139Z,11.1
2022-09-26T12:05:01.942Z,11.0
2022-09-26T12:10:02.046Z,11.1
2022-09-26T12:15:04.823Z,11.1
2022-09-26T12:20:02.638Z,11.3
2022-09-26T12:25:02.623Z,11.1
2022-09-26T12:30:02.390Z,11.0
2022-09-26T12:35:09.245Z,11.3
2022-09-26T12:40:02.102Z,11.1
2022-09-26T12:45:01.873Z,11.1
2022-09-26T12:50:02.730Z,11.1
2022-09-26T12:55:02.541Z,11.0
2022-09-26T13:00:12.365Z,11.0
2022-09-26T13:05:02.225Z,11.1
2022-09-26T13:10:02.079Z,10.8
2022-09-26T13:15:02.012Z,10.8
2022-09-26T13:20:01.799Z,11.0
2022-09-26T13:25:02.561Z,10.8
2022-09-26T13:30:02.444Z,10.8
2022-09-26T13:35:12.255Z,10.8
2022-09-26T13:40:02.034Z,10.8
2022-09-26T13:45:01.891Z,11.0
2022-09-26T13:50:02.703Z,10.8
2022-09-26T13:55:02.574Z,10.8
2022-09-26T14:00:02.375Z,11.0
2022-09-26T14:05:02.286Z,11.0
2022-09-26T14:10:02.137Z,10.8
2022-09-26T14:15:01.956Z,10.8
2022-09-26T14:20:01.945Z,11.0
2022-09-26T14:25:01.810Z,11.1
2022-09-26T14:30:02.676Z,11.0
2022-09-26T14:35:02.636Z,11.0
2022-09-26T14:40:02.556Z,11.1
2022-09-26T14:45:02.474Z,11.1
2022-09-26T14:50:03.706Z,11.1
2022-09-26T14:55:02.759Z,11.0
2022-09-26T15:00:02.579Z,11.1
2022-09-26T15:05:02.421Z,11.1
2022-09-26T15:10:02.216Z,11.1
2022-09-26T15:15:04.855Z,11.1
2022-09-26T15:20:02.131Z,11.3
2022-09-26T15:25:01.964Z,11.1
2022-09-26T15:30:01.763Z,11.3
2022-09-26T15:35:02.652Z,11.1
2022-09-26T15:40:02.523Z,11.1
2022-09-26T15:45:02.363Z,11.1
2022-09-26T15:50:02.320Z,11.1
2022-09-26T15:55:02.318Z,11.1
2022-09-26T16:00:02.414Z,11.1
2022-09-26T16:05:02.286Z,11.1
2022-09-26T16:10:02.142Z,11.1
2022-09-26T16:15:06.449Z,11.1
2022-09-26T16:20:02.282Z,11.0
2022-09-26T16:25:02.085Z,11.0
2022-09-26T16:30:05.284Z,11.0
2022-09-26T16:35:02.374Z,10.8
2022-09-26T16:40:02.343Z,10.8
2022-09-26T16:45:02.182Z,10.8
2022-09-26T16:50:02.026Z,10.8
2022-09-26T16:55:01.785Z,10.8
2022-09-26T17:00:02.704Z,10.8
2022-09-26T17:05:02.618Z,10.8
2022-09-26T17:10:02.564Z,10.8
2022-09-26T17:15:02.432Z,10.8
2022-09-26T17:20:02.368Z,10.8
2022-09-26T17:25:02.451Z,10.8
2022-09-26T17:30:02.355Z,10.8
2022-09-26T17:35:02.289Z,10.8
2022-09-26T17:40:02.196Z,10.8
2022-09-26T17:45:02.034Z,10.8
2022-09-26T17:50:01.963Z,10.8
2022-09-26T17:55:01.771Z,10.8
2022-09-26T18:00:02.674Z,10.8
2022-09-26T18:05:02.483Z,10.8
2022-09-26T18:10:02.282Z,10.8
2022-09-26T18:15:02.264Z,10.8
2022-09-26T18:20:03.089Z,10.8
2022-09-26T18:25:01.971Z,10.8
2022-09-26T18:30:01.861Z,10.8
2022-09-26T18:35:02.689Z,10.8
2022-09-26T18:40:04.293Z,10.8
2022-09-26T18:45:02.430Z,10.8
2022-09-26T18:50:02.377Z,10.8
2022-09-26T18:55:02.215Z,10.8
2022-09-26T19:00:02.028Z,10.8
2022-09-26T19:05:01.867Z,10.8
2022-09-26T19:10:02.709Z,11.0
2022-09-26T19:15:02.562Z,10.8
2022-09-26T19:20:02.422Z,11.0
2022-09-26T19:25:02.275Z,10.8
2022-09-26T19:30:02.143Z,10.8
2022-09-26T19:35:01.982Z,11.0
2022-09-26T19:40:01.862Z,11.0
2022-09-26T19:45:02.641Z,11.0
2022-09-26T19:50:02.426Z,10.8
2022-09-26T19:55:02.487Z,10.8
2022-09-26T20:00:02.457Z,10.8
2022-09-26T20:05:02.337Z,10.8
2022-09-26T20:10:02.199Z,10.8
2022-09-26T20:15:02.162Z,10.8
2022-09-26T20:20:01.972Z,11.0
2022-09-26T20:25:01.777Z,11.0
2022-09-26T20:30:02.616Z,11.0
2022-09-26T20:35:15.304Z,11.0
2022-09-26T20:40:08.170Z,11.0
2022-09-26T20:45:07.859Z,11.1
2022-09-26T20:50:08.545Z,11.0
2022-09-26T20:55:08.225Z,10.8
2022-09-26T21:00:07.941Z,10.8
2022-09-26T21:05:08.646Z,11.0
2022-09-26T21:10:08.449Z,11.0
2022-09-26T21:15:08.184Z,10.8
2022-09-26T21:20:07.932Z,10.8
2022-09-26T21:25:08.785Z,10.8
2022-09-26T21:30:08.486Z,10.8
2022-09-26T21:35:08.198Z,10.8
2022-09-26T21:40:08.302Z,10.5
2022-09-26T21:45:07.988Z,10.6
2022-09-26T21:50:07.680Z,10.1
2022-09-26T21:55:08.387Z,10.1
2022-09-26T22:00:08.148Z,10.1
2022-09-26T22:05:07.843Z,10.1
2022-09-26T22:10:08.608Z,10.1
2022-09-26T22:15:08.291Z,9.8
2022-09-26T22:20:07.986Z,10.0
2022-09-26T22:25:07.678Z,10.0
2022-09-26T22:30:08.416Z,10.0
2022-09-26T22:35:08.214Z,9.6
2022-09-26T22:40:07.892Z,9.6
2022-09-26T22:45:08.631Z,9.6
2022-09-26T22:50:08.316Z,9.5
2022-09-26T22:55:07.982Z,9.6
2022-09-26T23:01:00.639Z,9.6
2022-09-26T23:05:08.481Z,9.6
2022-09-26T23:10:08.176Z,9.5
2022-09-26T23:15:07.856Z,9.5
2022-09-26T23:20:08.603Z,9.5
2022-09-26T23:25:08.298Z,9.3
2022-09-26T23:30:07.987Z,9.5
2022-09-26T23:35:07.674Z,9.3
2022-09-26T23:40:08.352Z,9.3
2022-09-26T23:45:08.045Z,9.5
2022-09-26T23:50:08.514Z,9.5
2022-09-26T23:55:08.216Z,9.3
